Time;durP1;ratioP1;P1;durP2;ratioP2;P2;SDS_P1;SDS_P2;PMS_P1;PMS_P2;Temp;Humidity;BMP_temperature;BMP_pressure;BME280_temperature;BME280_humidity;BME280_pressure;Samples;Min_cycle;Max_cycle;Signal;HPM_P1;HPM_P2
2022/10/13 00:01:47;;;;;;;2.63;2.53;;;22.10;42.10;;;;;;5012695;28;20625;-66
2022/10/13 00:04:12;;;;;;;3.10;2.90;;;22.10;42.20;;;;;;5015509;28;20303;-63
2022/10/13 00:06:38;;;;;;;3.03;2.73;;;22.10;42.20;;;;;;5010848;28;20219;-66
2022/10/13 00:09:03;;;;;;;2.70;2.60;;;22.10;42.20;;;;;;5005109;28;20296;-62
2022/10/13 00:11:29;;;;;;;2.50;2.40;;;22.10;42.20;;;;;;5010657;28;20227;-66
2022/10/13 00:13:59;;;;;;;2.53;2.43;;;22.10;42.20;;;;;;5010629;28;20223;-63
2022/10/13 00:16:27;;;;;;;2.90;2.80;;;22.10;42.20;;;;;;5012996;28;20564;-63
2022/10/13 00:18:53;;;;;;;2.83;2.63;;;22.10;42.20;;;;;;5009926;28;20525;-61
2022/10/13 00:21:22;;;;;;;2.73;2.53;;;22.10;42.20;;;;;;5015040;28;20504;-63
2022/10/13 00:23:47;;;;;;;2.73;2.63;;;22.10;42.20;;;;;;5014323;28;20456;-60
2022/10/13 00:26:15;;;;;;;2.47;2.37;;;22.10;42.30;;;;;;5010748;28;20451;-66
2022/10/13 00:28:41;;;;;;;2.67;2.53;;;22.10;42.20;;;;;;5016711;28;20228;-62
2022/10/13 00:31:20;;;;;;;2.50;2.40;;;22.10;42.30;;;;;;5010995;28;20468;-62
2022/10/13 00:33:48;;;;;;;2.40;2.30;;;22.10;42.20;;;;;;5001159;28;20558;-61
2022/10/13 00:36:14;;;;;;;2.57;2.47;;;22.10;42.30;;;;;;5022137;28;21126;-65
2022/10/13 00:38:40;;;;;;;2.57;2.37;;;22.10;42.30;;;;;;5003764;28;20578;-63
2022/10/13 00:41:06;;;;;;;2.63;2.47;;;22.10;42.30;;;;;;5011663;28;20832;-62
2022/10/13 00:43:47;;;;;;;2.50;2.30;;;22.10;42.30;;;;;;5018113;28;20567;-61
2022/10/13 00:46:13;;;;;;;2.30;2.10;;;22.10;42.20;;;;;;5001536;28;20445;-61
2022/10/13 00:48:40;;;;;;;2.80;2.60;;;22.10;42.30;;;;;;5004217;28;20534;-62
2022/10/13 00:51:07;;;;;;;2.23;2.03;;;22.10;42.30;;;;;;5015809;28;20480;-61
2022/10/13 00:53:35;;;;;;;3.63;2.87;;;22.10;42.30;;;;;;5019643;28;20436;-63
2022/10/13 00:56:00;;;;;;;2.57;2.47;;;22.10;42.30;;;;;;5014433;28;20513;-61
2022/10/13 00:58:30;;;;;;;2.33;2.23;;;22.10;42.30;;;;;;5015419;28;21984;-61
2022/10/13 01:00:57;;;;;;;2.23;2.13;;;22.10;42.30;;;;;;5007696;28;20667;-62
2022/10/13 01:03:24;;;;;;;2.00;1.90;;;22.10;42.30;;;;;;5016147;28;20460;-61
2022/10/13 01:05:52;;;;;;;2.50;2.40;;;22.10;42.30;;;;;;5006853;28;20476;-67
2022/10/13 01:08:18;;;;;;;2.60;2.50;;;22.10;42.30;;;;;;5011859;28;20499;-62
2022/10/13 01:10:55;;;;;;;2.93;2.73;;;22.10;42.30;;;;;;5011718;28;21149;-62
2022/10/13 01:13:39;;;;;;;2.60;2.40;;;22.10;42.30;;;;;;5017030;28;20464;-62
2022/10/13 01:16:16;;;;;;;2.67;2.40;;;22.10;42.30;;;;;;5004330;28;20471;-66
2022/10/13 01:18:42;;;;;;;2.63;2.53;;;22.10;42.30;;;;;;5005053;28;20517;-64
2022/10/13 01:21:12;;;;;;;2.30;2.20;;;22.10;42.30;;;;;;5010529;28;20818;-63
2022/10/13 01:24:04;;;;;;;2.70;2.50;;;22.10;42.30;;;;;;5006567;28;20214;-66
2022/10/13 01:26:51;;;;;;;2.60;2.50;;;22.10;42.30;;;;;;5004003;28;20491;-63
2022/10/13 01:29:20;;;;;;;2.33;2.23;;;22.10;42.40;;;;;;5002165;28;20498;-62
2022/10/13 01:31:53;;;;;;;2.50;2.40;;;22.10;42.30;;;;;;5008457;28;20542;-64
2022/10/13 01:34:21;;;;;;;2.47;2.30;;;22.10;42.40;;;;;;5003613;28;20969;-62
2022/10/13 01:37:02;;;;;;;2.77;2.57;;;22.10;42.40;;;;;;5006586;28;20468;-61
2022/10/13 01:39:41;;;;;;;2.70;2.50;;;22.10;42.40;;;;;;5018160;28;20956;-64
2022/10/13 01:42:15;;;;;;;2.10;2.00;;;22.10;42.40;;;;;;5000011;28;20826;-62
2022/10/13 01:44:48;;;;;;;2.27;2.17;;;22.10;42.40;;;;;;5011365;28;21033;-65
2022/10/13 01:47:16;;;;;;;2.90;2.37;;;22.10;42.40;;;;;;5016409;28;20535;-60
2022/10/13 01:49:43;;;;;;;2.40;2.20;;;22.10;42.40;;;;;;5015840;28;20462;-61
2022/10/13 01:52:15;;;;;;;2.70;2.50;;;22.10;42.40;;;;;;5012730;28;20560;-64
2022/10/13 01:54:41;;;;;;;2.23;2.13;;;22.10;42.40;;;;;;5014405;28;20467;-66
2022/10/13 01:57:29;;;;;;;2.40;2.30;;;22.10;42.40;;;;;;5016757;28;20469;-63
2022/10/13 01:59:55;;;;;;;2.20;2.10;;;22.10;42.40;;;;;;4993504;28;20241;-62
2022/10/13 02:02:33;;;;;;;2.47;2.37;;;22.10;42.40;;;;;;5002587;28;20477;-62
2022/10/13 02:05:10;;;;;;;2.50;2.40;;;22.10;42.40;;;;;;5011506;28;20459;-61
2022/10/13 02:07:46;;;;;;;2.10;2.00;;;22.10;42.40;;;;;;5016426;28;20452;-67
2022/10/13 02:10:24;;;;;;;2.63;2.53;;;22.10;42.40;;;;;;5003990;28;20520;-62
2022/10/13 02:13:02;;;;;;;2.43;2.33;;;22.10;42.40;;;;;;4997970;28;22635;-63
2022/10/13 02:15:38;;;;;;;2.17;2.07;;;22.10;42.50;;;;;;5011054;28;20495;-65
2022/10/13 02:18:05;;;;;;;2.20;2.10;;;22.10;42.50;;;;;;5005410;28;20462;-63
2022/10/13 02:20:32;;;;;;;2.10;2.00;;;22.10;42.40;;;;;;5011010;28;20940;-62
2022/10/13 02:23:02;;;;;;;2.40;2.30;;;22.00;42.40;;;;;;5016492;28;20862;-61
2022/10/13 02:25:29;;;;;;;2.20;2.10;;;22.10;42.40;;;;;;5020183;28;20495;-62
2022/10/13 02:27:58;;;;;;;2.53;2.43;;;22.10;42.50;;;;;;5017214;28;20540;-63
2022/10/13 02:30:26;;;;;;;2.77;2.63;;;22.10;42.50;;;;;;5008290;28;20456;-62
2022/10/13 02:32:52;;;;;;;2.67;2.50;;;22.10;42.50;;;;;;5015960;28;20468;-61
2022/10/13 02:35:17;;;;;;;2.47;2.37;;;22.10;42.50;;;;;;5015070;28;20514;-64
2022/10/13 02:37:43;;;;;;;2.30;2.20;;;22.10;42.50;;;;;;5014828;28;20665;-66
2022/10/13 02:40:10;;;;;;;2.60;2.50;;;22.10;42.50;;;;;;5010858;28;20245;-64
2022/10/13 02:42:35;;;;;;;2.30;2.20;;;22.10;42.50;;;;;;5020934;28;20629;-62
2022/10/13 02:45:01;;;;;;;2.43;2.33;;;22.10;42.50;;;;;;5019021;28;20452;-62
2022/10/13 02:47:26;;;;;;;2.50;2.40;;;22.10;42.50;;;;;;5011882;28;20306;-60
2022/10/13 02:49:52;;;;;;;2.23;2.07;;;22.10;42.50;;;;;;5007708;28;20246;-62
2022/10/13 02:52:17;;;;;;;2.30;2.20;;;22.10;42.50;;;;;;5008448;28;20215;-65
2022/10/13 02:54:43;;;;;;;2.10;2.00;;;22.10;42.50;;;;;;5011665;28;20215;-64
2022/10/13 02:57:08;;;;;;;2.37;2.27;;;22.10;42.50;;;;;;5013713;28;20239;-63
2022/10/13 02:59:34;;;;;;;2.20;2.10;;;22.10;42.50;;;;;;5012463;28;20657;-62
2022/10/13 03:01:59;;;;;;;2.30;2.20;;;22.00;42.40;;;;;;5001675;28;20288;-63
2022/10/13 03:04:25;;;;;;;2.30;2.20;;;22.10;42.50;;;;;;5008764;28;20878;-62
2022/10/13 03:06:50;;;;;;;2.60;2.40;;;22.00;42.50;;;;;;5010108;28;20226;-65
2022/10/13 03:09:16;;;;;;;2.20;2.10;;;22.10;42.10;;;;;;5000733;28;20226;-63
2022/10/13 03:11:41;;;;;;;2.30;2.20;;;22.10;42.50;;;;;;5006619;28;20225;-64
2022/10/13 03:14:07;;;;;;;2.37;2.27;;;22.10;42.50;;;;;;5014270;28;20219;-66
2022/10/13 03:16:33;;;;;;;2.40;2.30;;;22.00;42.50;;;;;;5005642;28;20302;-66
2022/10/13 03:18:58;;;;;;;1.93;1.83;;;22.00;42.50;;;;;;4997033;28;20269;-65
2022/10/13 03:21:24;;;;;;;2.33;2.23;;;22.10;42.50;;;;;;5010392;28;20234;-61
2022/10/13 03:23:49;;;;;;;2.00;1.90;;;22.10;42.50;;;;;;5019537;28;20242;-62
2022/10/13 03:26:15;;;;;;;2.57;2.37;;;22.00;42.50;;;;;;5013964;28;20219;-61
2022/10/13 03:28:41;;;;;;;2.10;2.00;;;22.00;42.50;;;;;;5013107;28;20223;-62
2022/10/13 03:31:09;;;;;;;2.37;2.27;;;22.00;42.50;;;;;;5011006;28;20629;-62
2022/10/13 03:33:35;;;;;;;2.40;2.20;;;22.10;42.50;;;;;;5017204;28;20218;-61
2022/10/13 03:36:02;;;;;;;2.53;2.43;;;22.00;42.50;;;;;;5007418;28;20960;-60
2022/10/13 03:38:29;;;;;;;2.47;2.37;;;22.00;42.50;;;;;;5018429;28;20225;-61
2022/10/13 03:40:55;;;;;;;2.43;2.23;;;22.00;42.50;;;;;;5010518;28;20537;-61
2022/10/13 03:43:22;;;;;;;2.40;2.30;;;22.00;42.50;;;;;;5017932;28;20984;-63
2022/10/13 03:45:55;;;;;;;2.40;2.30;;;22.00;42.50;;;;;;5015598;28;20685;-66
2022/10/13 03:48:21;;;;;;;2.33;2.23;;;22.00;42.50;;;;;;5024632;28;20505;-63
2022/10/13 03:50:47;;;;;;;2.03;1.93;;;22.00;42.50;;;;;;5010808;28;20457;-62
2022/10/13 03:53:12;;;;;;;2.30;2.20;;;22.00;42.50;;;;;;5020325;28;20287;-62
2022/10/13 03:55:38;;;;;;;2.23;2.13;;;22.00;42.50;;;;;;5021988;28;20576;-61
2022/10/13 03:58:03;;;;;;;2.07;1.97;;;22.00;42.50;;;;;;5021281;28;20223;-63
2022/10/13 04:00:29;;;;;;;2.10;1.90;;;22.00;42.50;;;;;;5018518;28;20226;-63
2022/10/13 04:02:54;;;;;;;2.10;2.00;;;22.00;42.60;;;;;;5012057;28;20231;-65
2022/10/13 04:05:20;;;;;;;2.50;2.40;;;22.00;42.60;;;;;;5000139;28;20234;-61
2022/10/13 04:07:45;;;;;;;2.33;2.23;;;22.00;42.50;;;;;;5008921;28;20249;-63
2022/10/13 04:10:11;;;;;;;2.50;2.40;;;22.00;42.60;;;;;;5009632;28;20946;-63
2022/10/13 04:12:36;;;;;;;2.43;2.33;;;22.00;42.50;;;;;;5009910;28;20280;-63
2022/10/13 04:15:03;;;;;;;3.00;2.80;;;22.00;42.60;;;;;;5004040;28;20223;-64
2022/10/13 04:17:28;;;;;;;2.07;1.97;;;22.00;42.60;;;;;;5007088;28;20221;-60
2022/10/13 04:19:54;;;;;;;2.33;2.23;;;22.00;42.60;;;;;;5009389;28;20592;-62
2022/10/13 04:22:20;;;;;;;3.67;2.70;;;22.00;42.50;;;;;;5009320;28;20230;-64
2022/10/13 04:24:45;;;;;;;2.27;2.07;;;22.00;42.50;;;;;;5010024;28;20321;-64
2022/10/13 04:27:11;;;;;;;2.20;2.10;;;22.00;42.60;;;;;;5003339;28;20302;-65
2022/10/13 04:29:36;;;;;;;2.13;2.03;;;22.00;42.50;;;;;;5013996;28;20302;-64
2022/10/13 04:32:02;;;;;;;2.10;2.00;;;22.10;42.60;;;;;;5005808;28;20663;-64
2022/10/13 04:34:28;;;;;;;1.90;1.80;;;22.10;42.50;;;;;;5009878;28;20960;-62
2022/10/13 04:36:53;;;;;;;2.30;2.20;;;22.10;42.50;;;;;;5004092;28;20260;-63
2022/10/13 04:39:19;;;;;;;2.30;2.20;;;22.10;42.30;;;;;;5008983;28;20219;-62
2022/10/13 04:41:44;;;;;;;2.07;1.97;;;22.20;42.40;;;;;;5005897;28;20566;-64
2022/10/13 04:44:10;;;;;;;2.23;2.13;;;22.20;42.30;;;;;;5001243;28;20218;-67
2022/10/13 04:46:35;;;;;;;1.97;1.87;;;22.20;42.30;;;;;;5007657;28;20308;-63
2022/10/13 04:49:01;;;;;;;2.23;2.13;;;22.20;42.30;;;;;;5014949;28;20226;-63
2022/10/13 04:51:26;;;;;;;2.23;2.13;;;22.20;42.30;;;;;;5020392;28;20349;-63
2022/10/13 04:53:59;;;;;;;2.53;2.43;;;22.20;42.30;;;;;;5021221;28;20219;-65
2022/10/13 04:56:26;;;;;;;2.20;2.10;;;22.20;42.60;;;;;;5015922;28;20222;-64
2022/10/13 04:58:51;;;;;;;2.07;1.97;;;22.20;42.30;;;;;;5009973;28;20465;-63
2022/10/13 05:01:20;;;;;;;2.43;2.33;;;22.20;42.30;;;;;;5004865;28;20518;-62
2022/10/13 05:03:46;;;;;;;2.13;2.03;;;22.20;42.20;;;;;;5013098;28;20216;-61
2022/10/13 05:06:24;;;;;;;2.30;2.20;;;22.20;42.20;;;;;;5001510;28;21220;-66
2022/10/13 05:08:50;;;;;;;2.20;2.10;;;22.20;42.20;;;;;;5008742;28;20227;-61
2022/10/13 05:11:16;;;;;;;2.10;2.00;;;22.20;42.30;;;;;;5021590;28;20444;-61
2022/10/13 05:13:42;;;;;;;2.20;2.10;;;22.20;43.10;;;;;;5019052;28;20676;-65
2022/10/13 05:16:13;;;;;;;2.07;1.97;;;22.20;43.10;;;;;;5012590;28;20460;-65
2022/10/13 05:18:39;;;;;;;2.83;2.70;;;22.20;42.30;;;;;;5010327;28;20223;-62
2022/10/13 05:21:24;;;;;;;2.40;2.20;;;22.20;42.30;;;;;;5010369;28;20510;-62
2022/10/13 05:23:54;;;;;;;2.10;2.00;;;22.20;42.30;;;;;;5012509;28;20762;-62
2022/10/13 05:26:21;;;;;;;2.30;2.20;;;22.20;42.30;;;;;;5016503;28;21799;-63
2022/10/13 05:28:48;;;;;;;2.10;2.00;;;22.20;42.40;;;;;;5018402;28;20456;-62
2022/10/13 05:31:13;;;;;;;2.00;1.90;;;22.20;42.30;;;;;;5008768;28;20468;-61
2022/10/13 05:33:39;;;;;;;2.20;2.10;;;22.20;42.30;;;;;;5013229;28;20457;-60
2022/10/13 05:36:06;;;;;;;2.70;2.50;;;22.20;42.40;;;;;;5020660;28;20247;-60
2022/10/13 05:38:32;;;;;;;2.00;1.90;;;22.20;42.30;;;;;;5007118;28;20828;-63
2022/10/13 05:41:12;;;;;;;2.40;2.30;;;22.20;42.40;;;;;;5006886;28;20517;-62
2022/10/13 05:43:40;;;;;;;2.63;2.20;;;22.20;43.20;;;;;;5008891;28;20223;-66
2022/10/13 05:46:06;;;;;;;2.00;1.90;;;22.20;42.40;;;;;;5011757;28;20437;-63
2022/10/13 05:48:32;;;;;;;2.37;2.17;;;22.20;42.40;;;;;;5011582;28;20514;-66
2022/10/13 05:51:00;;;;;;;2.30;2.20;;;22.20;42.50;;;;;;5018068;28;20444;-62
2022/10/13 05:53:29;;;;;;;2.00;1.90;;;22.20;42.50;;;;;;5024758;28;20253;-64
2022/10/13 05:56:04;;;;;;;1.97;1.87;;;22.20;42.50;;;;;;5020357;28;20466;-63
2022/10/13 05:58:32;;;;;;;3.60;2.00;;;22.20;42.40;;;;;;5018119;28;20450;-67
2022/10/13 06:00:58;;;;;;;2.37;2.27;;;22.20;42.50;;;;;;5006326;28;20485;-67
2022/10/13 06:03:23;;;;;;;2.10;2.00;;;22.20;42.50;;;;;;5012739;28;20973;-64
2022/10/13 06:05:49;;;;;;;2.40;2.30;;;22.20;42.50;;;;;;5017057;28;20226;-62
2022/10/13 06:08:16;;;;;;;2.00;1.90;;;22.20;42.50;;;;;;5021156;28;20777;-63
2022/10/13 06:10:42;;;;;;;2.03;1.93;;;22.20;42.40;;;;;;5019290;28;20229;-62
2022/10/13 06:13:08;;;;;;;2.03;1.93;;;22.20;42.50;;;;;;5017896;28;20478;-64
2022/10/13 06:15:34;;;;;;;2.30;2.10;;;22.20;42.50;;;;;;5018878;28;20447;-62
2022/10/13 06:18:00;;;;;;;1.93;1.83;;;22.20;42.50;;;;;;5012641;28;20457;-61
2022/10/13 06:20:26;;;;;;;2.13;2.03;;;22.20;42.50;;;;;;5020538;28;20345;-62
2022/10/13 06:22:54;;;;;;;1.80;1.70;;;22.20;42.50;;;;;;5019144;28;20627;-61
2022/10/13 06:25:19;;;;;;;2.17;2.07;;;22.20;42.90;;;;;;5015060;28;20472;-61
2022/10/13 06:27:45;;;;;;;2.30;2.20;;;22.20;42.50;;;;;;5002159;28;20469;-62
2022/10/13 06:30:11;;;;;;;2.13;2.03;;;22.20;42.50;;;;;;4997739;28;20225;-62
2022/10/13 06:32:36;;;;;;;1.93;1.83;;;22.10;42.40;;;;;;4998060;28;20224;-61
2022/10/13 06:35:02;;;;;;;2.23;2.13;;;22.20;42.60;;;;;;5011091;28;20223;-65
2022/10/13 06:37:27;;;;;;;2.00;1.90;;;22.20;42.50;;;;;;5017819;28;20229;-65
2022/10/13 06:39:53;;;;;;;2.10;2.00;;;22.20;42.50;;;;;;5016605;28;20709;-67
2022/10/13 06:42:18;;;;;;;2.20;2.10;;;22.20;42.50;;;;;;5010238;28;21100;-62
2022/10/13 06:44:44;;;;;;;2.10;2.00;;;22.20;42.50;;;;;;5010951;28;20288;-67
2022/10/13 06:47:10;;;;;;;2.23;2.13;;;22.20;42.50;;;;;;5012522;28;20225;-63
2022/10/13 06:49:35;;;;;;;2.20;2.10;;;22.10;42.40;;;;;;5017385;28;20230;-62
2022/10/13 06:52:01;;;;;;;2.20;2.10;;;22.20;42.60;;;;;;5017969;28;20868;-62
2022/10/13 06:54:26;;;;;;;2.20;2.10;;;22.20;42.50;;;;;;5017005;28;20233;-61
2022/10/13 06:56:52;;;;;;;2.10;2.00;;;22.20;42.50;;;;;;5018292;28;20683;-63
2022/10/13 06:59:18;;;;;;;2.30;2.20;;;22.20;42.60;;;;;;5018786;28;20231;-63
2022/10/13 07:01:43;;;;;;;2.03;1.93;;;22.20;42.50;;;;;;5020444;28;20245;-62
2022/10/13 07:04:09;;;;;;;2.37;2.20;;;22.20;42.60;;;;;;5016239;28;20507;-61
2022/10/13 07:06:34;;;;;;;2.30;2.20;;;22.10;42.50;;;;;;5017064;28;20225;-61
2022/10/13 07:09:07;;;;;;;1.70;1.60;;;22.10;42.50;;;;;;5008039;28;20299;-61
2022/10/13 07:11:33;;;;;;;2.23;2.13;;;22.20;42.50;;;;;;5011695;28;20220;-62
2022/10/13 07:13:59;;;;;;;2.23;2.13;;;22.10;42.50;;;;;;5010599;28;20543;-61
2022/10/13 07:16:25;;;;;;;2.47;2.00;;;22.10;42.50;;;;;;5012075;28;20464;-63
2022/10/13 07:18:51;;;;;;;2.47;2.37;;;22.20;42.60;;;;;;5013963;28;20226;-64
2022/10/13 07:21:16;;;;;;;2.30;2.20;;;22.10;43.20;;;;;;5020346;28;20479;-62
2022/10/13 07:23:42;;;;;;;2.10;2.00;;;22.10;42.50;;;;;;5020541;28;20272;-62
2022/10/13 07:26:10;;;;;;;2.03;1.90;;;22.20;42.50;;;;;;5021438;28;20652;-64
2022/10/13 07:28:35;;;;;;;2.00;1.90;;;22.10;42.50;;;;;;5018063;28;20230;-61
2022/10/13 07:31:08;;;;;;;2.23;2.10;;;22.20;42.60;;;;;;5015575;28;20920;-62
2022/10/13 07:33:34;;;;;;;2.50;2.30;;;22.20;42.60;;;;;;5015096;28;20220;-63
2022/10/13 07:35:59;;;;;;;2.47;2.37;;;22.20;42.60;;;;;;5018762;28;20790;-64
2022/10/13 07:38:24;;;;;;;2.23;2.13;;;22.10;42.50;;;;;;5014907;28;20218;-61
2022/10/13 07:40:50;;;;;;;2.73;1.90;;;22.10;42.50;;;;;;5009272;28;20310;-61
2022/10/13 07:43:16;;;;;;;2.13;1.70;;;22.20;42.60;;;;;;5020623;28;20219;-62
2022/10/13 07:45:42;;;;;;;1.80;1.70;;;22.10;42.60;;;;;;5015880;28;20294;-61
2022/10/13 07:48:07;;;;;;;2.00;1.90;;;22.20;42.60;;;;;;5018514;28;20226;-62
2022/10/13 07:50:33;;;;;;;2.40;2.30;;;22.20;42.60;;;;;;5017574;28;20448;-64
2022/10/13 07:52:58;;;;;;;2.23;2.13;;;22.10;42.50;;;;;;5016311;28;20223;-62
2022/10/13 07:55:24;;;;;;;1.90;1.80;;;22.10;42.50;;;;;;5012830;28;20222;-62
2022/10/13 07:57:49;;;;;;;2.20;2.10;;;22.10;42.50;;;;;;5023441;28;20222;-61
2022/10/13 08:00:15;;;;;;;2.13;2.03;;;22.10;42.50;;;;;;5023185;28;20242;-61
2022/10/13 08:02:41;;;;;;;2.80;2.07;;;22.10;42.50;;;;;;5008537;28;20245;-63
2022/10/13 08:05:07;;;;;;;2.00;1.90;;;22.10;42.60;;;;;;5016999;28;20219;-64
2022/10/13 08:07:32;;;;;;;2.10;2.00;;;22.10;42.50;;;;;;5019592;28;20325;-61
2022/10/13 08:09:58;;;;;;;2.00;1.90;;;22.10;42.50;;;;;;5021610;28;20702;-63
2022/10/13 08:12:23;;;;;;;2.10;1.90;;;22.10;42.50;;;;;;5020431;28;20305;-64
2022/10/13 08:14:50;;;;;;;2.00;1.90;;;22.10;42.50;;;;;;5021383;28;20285;-61
2022/10/13 08:17:15;;;;;;;2.30;2.20;;;22.10;42.50;;;;;;5015328;28;20226;-65
2022/10/13 08:19:41;;;;;;;2.33;2.13;;;22.10;42.50;;;;;;5014527;28;20467;-62
2022/10/13 08:22:08;;;;;;;1.73;1.63;;;22.10;42.50;;;;;;5016285;28;20230;-62
2022/10/13 08:24:34;;;;;;;2.23;2.13;;;22.10;42.50;;;;;;5008705;28;20251;-63
2022/10/13 08:27:00;;;;;;;2.50;2.07;;;22.10;42.60;;;;;;5007153;28;22765;-65
2022/10/13 08:29:25;;;;;;;2.10;2.00;;;22.10;42.60;;;;;;5015616;28;20239;-62
2022/10/13 08:31:52;;;;;;;2.40;2.30;;;22.20;42.70;;;;;;5016840;28;20346;-65
2022/10/13 08:34:17;;;;;;;1.93;1.83;;;22.10;42.60;;;;;;5016969;28;20266;-61
2022/10/13 08:36:43;;;;;;;2.00;1.90;;;22.10;42.60;;;;;;5018655;28;20479;-66
2022/10/13 08:39:09;;;;;;;2.10;2.00;;;22.10;42.70;;;;;;5025727;28;20682;-64
2022/10/13 08:41:38;;;;;;;2.57;2.47;;;22.10;42.60;;;;;;5017968;28;20245;-62
2022/10/13 08:44:22;;;;;;;2.20;2.10;;;22.10;42.60;;;;;;5002430;28;20891;-62
2022/10/13 08:46:58;;;;;;;2.33;2.23;;;22.10;42.60;;;;;;5002753;28;20480;-62
2022/10/13 08:49:23;;;;;;;2.40;2.30;;;22.10;42.60;;;;;;5009200;28;20551;-62
2022/10/13 08:51:49;;;;;;;1.80;1.70;;;22.10;42.60;;;;;;5016653;28;20469;-62
2022/10/13 08:54:17;;;;;;;2.10;1.90;;;22.10;42.60;;;;;;5019447;28;20214;-61
2022/10/13 08:56:45;;;;;;;2.47;2.37;;;22.10;42.60;;;;;;5015938;28;20211;-65
2022/10/13 08:59:13;;;;;;;2.10;2.00;;;22.10;42.60;;;;;;5008977;28;20506;-63
2022/10/13 09:01:40;;;;;;;2.17;2.07;;;22.10;42.60;;;;;;5017285;28;20865;-62
2022/10/13 09:04:35;;;;;;;2.60;1.83;;;22.10;42.60;;;;;;5009450;28;20467;-62
2022/10/13 09:07:21;;;;;;;2.00;1.90;;;22.10;42.60;;;;;;5006991;28;20468;-63
2022/10/13 09:09:52;;;;;;;2.27;2.10;;;22.10;42.60;;;;;;5014040;28;20477;-62
2022/10/13 09:12:22;;;;;;;1.90;1.80;;;22.10;42.60;;;;;;5017472;28;20567;-67
2022/10/13 09:15:10;;;;;;;2.10;1.90;;;22.10;42.60;;;;;;5019587;28;20495;-66
2022/10/13 09:17:40;;;;;;;2.13;2.03;;;22.10;42.60;;;;;;5021455;28;20459;-61
2022/10/13 09:20:06;;;;;;;2.17;2.07;;;22.10;42.60;;;;;;5011097;28;20460;-63
2022/10/13 09:22:38;;;;;;;2.70;2.50;;;22.10;42.60;;;;;;5015868;28;20504;-61
2022/10/13 09:25:10;;;;;;;1.97;1.87;;;22.10;42.60;;;;;;5012952;28;20301;-62
2022/10/13 09:27:41;;;;;;;2.10;2.00;;;22.10;42.60;;;;;;5006463;28;20482;-61
2022/10/13 09:30:28;;;;;;;1.90;1.80;;;22.10;42.60;;;;;;5015912;28;20474;-62
2022/10/13 09:33:07;;;;;;;2.50;2.40;;;22.10;42.60;;;;;;5004989;28;20568;-66
2022/10/13 09:35:34;;;;;;;1.83;1.73;;;22.10;42.60;;;;;;5005931;28;21207;-61
2022/10/13 09:38:26;;;;;;;2.20;2.10;;;22.10;42.60;;;;;;5002983;28;20559;-65
2022/10/13 09:41:08;;;;;;;1.70;1.60;;;22.10;42.60;;;;;;5003087;28;20468;-63
2022/10/13 09:43:46;;;;;;;2.60;2.50;;;22.10;42.50;;;;;;5006093;28;20477;-62
2022/10/13 09:46:23;;;;;;;2.00;1.90;;;22.10;42.50;;;;;;5006946;28;20942;-62
2022/10/13 09:48:55;;;;;;;2.40;2.30;;;22.10;42.60;;;;;;5003422;28;20471;-62
2022/10/13 09:51:40;;;;;;;2.37;2.27;;;22.10;42.50;;;;;;5010143;28;20481;-66
2022/10/13 09:54:24;;;;;;;2.37;2.17;;;22.10;42.60;;;;;;5019882;28;20454;-65
2022/10/13 09:57:02;;;;;;;2.13;2.03;;;22.10;42.60;;;;;;5012449;28;20465;-63
2022/10/13 09:59:35;;;;;;;2.47;2.27;;;22.10;42.60;;;;;;5016178;28;21257;-61
2022/10/13 10:02:14;;;;;;;2.20;2.10;;;22.10;42.60;;;;;;5013438;28;20470;-65
2022/10/13 10:04:42;;;;;;;2.20;2.10;;;22.10;42.60;;;;;;5016939;28;20463;-63
2022/10/13 10:07:20;;;;;;;2.73;2.53;;;22.10;42.50;;;;;;5006446;28;20449;-65
2022/10/13 10:09:51;;;;;;;1.97;1.87;;;22.10;42.60;;;;;;5011713;28;20459;-62
2022/10/13 10:12:22;;;;;;;2.17;2.07;;;22.10;42.60;;;;;;4992248;28;20776;-66
2022/10/13 10:14:49;;;;;;;1.90;1.80;;;22.10;42.60;;;;;;5018043;28;20462;-61
2022/10/13 10:17:57;;;;;;;2.20;2.00;;;22.10;42.50;;;;;;5010683;28;21350;-61
2022/10/13 10:20:49;;;;;;;2.50;2.30;;;22.10;42.50;;;;;;5016717;28;20464;-63
2022/10/13 10:23:21;;;;;;;2.60;2.50;;;22.10;42.50;;;;;;5012356;28;20503;-70
2022/10/13 10:26:00;;;;;;;2.30;2.20;;;22.10;42.50;;;;;;5010801;28;20472;-61
2022/10/13 10:28:42;;;;;;;2.30;2.20;;;22.10;42.50;;;;;;5004439;28;20469;-73
2022/10/13 10:31:49;;;;;;;2.13;1.97;;;22.10;42.50;;;;;;5004366;28;20476;-67
2022/10/13 10:34:31;;;;;;;2.60;2.37;;;22.10;42.50;;;;;;4983766;28;20472;-66
2022/10/13 10:37:23;;;;;;;2.10;2.00;;;22.00;42.50;;;;;;5010818;28;20462;-62
2022/10/13 10:40:33;;;;;;;2.50;2.30;;;22.10;42.60;;;;;;5013100;28;20459;-61
2022/10/13 10:43:18;;;;;;;2.50;2.30;;;22.10;42.50;;;;;;4965389;28;20976;-64
2022/10/13 10:45:47;;;;;;;2.60;2.40;;;22.00;42.50;;;;;;5003504;28;20455;-61
2022/10/13 10:48:22;;;;;;;2.00;1.90;;;22.00;42.40;;;;;;5014018;28;20457;-62
2022/10/13 10:50:52;;;;;;;2.33;2.23;;;22.00;42.40;;;;;;5011352;28;20475;-62
2022/10/13 10:53:32;;;;;;;2.33;2.23;;;22.10;42.50;;;;;;5013659;28;20491;-63
2022/10/13 10:56:20;;;;;;;2.30;2.20;;;22.10;42.50;;;;;;5017489;28;20833;-62
2022/10/13 10:59:01;;;;;;;2.50;2.30;;;22.10;42.50;;;;;;5015678;28;20460;-62
2022/10/13 11:01:39;;;;;;;2.10;2.00;;;22.10;42.50;;;;;;5013080;28;20476;-67
2022/10/13 11:04:19;;;;;;;2.43;2.33;;;22.10;42.80;;;;;;5016365;28;21042;-62
2022/10/13 11:06:45;;;;;;;2.00;1.90;;;22.10;42.50;;;;;;5014348;28;20486;-62
2022/10/13 11:09:11;;;;;;;2.20;2.10;;;22.10;42.60;;;;;;5022284;28;20546;-62
2022/10/13 11:11:41;;;;;;;3.53;2.53;;;22.10;42.50;;;;;;5000748;28;20304;-62
2022/10/13 11:14:07;;;;;;;2.30;2.20;;;22.10;42.50;;;;;;5006228;28;20545;-62
2022/10/13 11:16:57;;;;;;;2.93;2.63;;;22.10;42.50;;;;;;5003559;28;20537;-63
2022/10/13 11:19:36;;;;;;;2.33;2.03;;;22.10;42.50;;;;;;5001286;28;20254;-63
2022/10/13 11:22:01;;;;;;;2.70;2.50;;;22.10;42.50;;;;;;5002104;28;20452;-65
2022/10/13 11:24:33;;;;;;;2.27;2.07;;;22.10;42.60;;;;;;4997192;28;20533;-62
2022/10/13 11:27:09;;;;;;;2.13;2.03;;;22.10;42.50;;;;;;4990618;28;20310;-65
2022/10/13 11:29:47;;;;;;;2.60;2.40;;;22.10;42.50;;;;;;4994741;28;20471;-62
2022/10/13 11:35:06;;;;;;;2.03;1.93;;;22.10;42.50;;;;;;5002020;28;20495;-65
2022/10/13 11:37:56;;;;;;;2.43;2.30;;;22.10;42.60;;;;;;4991005;28;20881;-64
2022/10/13 11:40:32;;;;;;;2.07;1.93;;;22.10;42.60;;;;;;4996737;28;21555;-62
2022/10/13 11:43:36;;;;;;;2.10;2.00;;;22.10;42.60;;;;;;4996546;28;20867;-61
2022/10/13 11:46:20;;;;;;;2.40;2.20;;;22.10;42.60;;;;;;5011245;28;20525;-61
2022/10/13 11:49:15;;;;;;;2.10;2.00;;;22.10;42.60;;;;;;5014465;28;20454;-62
2022/10/13 11:52:25;;;;;;;2.00;1.90;;;22.10;42.60;;;;;;4977572;28;20971;-63
2022/10/13 11:55:00;;;;;;;2.40;2.30;;;22.10;42.60;;;;;;4990226;28;20457;-63
2022/10/13 11:57:27;;;;;;;2.63;2.37;;;22.10;42.70;;;;;;5000363;28;20474;-63
2022/10/13 11:59:54;;;;;;;2.67;2.33;;;22.10;42.60;;;;;;5004912;28;20544;-61
2022/10/13 12:02:22;;;;;;;2.73;2.53;;;22.10;42.70;;;;;;5004512;28;21394;-61
2022/10/13 12:05:24;;;;;;;2.40;2.30;;;22.10;42.60;;;;;;5004581;28;20464;-63
2022/10/13 12:07:53;;;;;;;2.37;2.20;;;22.10;42.60;;;;;;5002830;28;20463;-63
2022/10/13 12:10:30;;;;;;;2.67;2.50;;;22.10;42.60;;;;;;5006436;28;20464;-61
2022/10/13 12:12:57;;;;;;;2.13;2.03;;;22.10;42.60;;;;;;5016811;28;20454;-63
2022/10/13 12:15:39;;;;;;;2.57;2.37;;;22.10;42.60;;;;;;5020035;28;20511;-63
2022/10/13 12:18:22;;;;;;;2.30;2.10;;;22.10;42.60;;;;;;5010499;28;20599;-61
2022/10/13 12:20:52;;;;;;;2.60;2.00;;;22.10;42.60;;;;;;5013482;28;20543;-63
2022/10/13 12:23:18;;;;;;;2.00;1.90;;;22.10;42.60;;;;;;5022260;28;20470;-61
2022/10/13 12:25:47;;;;;;;2.40;2.30;;;22.10;42.60;;;;;;5014631;28;20473;-61
2022/10/13 12:28:18;;;;;;;2.10;2.00;;;22.10;42.60;;;;;;5017612;28;20226;-63
2022/10/13 12:30:59;;;;;;;2.07;1.97;;;22.10;42.60;;;;;;5014071;28;20487;-61
2022/10/13 12:33:29;;;;;;;2.20;2.10;;;22.10;42.60;;;;;;5008849;28;20456;-61
2022/10/13 12:35:55;;;;;;;2.50;2.23;;;22.10;42.60;;;;;;5015092;28;20988;-63
2022/10/13 12:38:22;;;;;;;2.10;2.00;;;22.10;42.60;;;;;;5019615;28;20460;-65
2022/10/13 12:40:49;;;;;;;2.00;1.90;;;22.10;42.60;;;;;;5014647;28;20449;-61
2022/10/13 12:43:23;;;;;;;2.30;2.20;;;22.10;42.70;;;;;;4989725;28;20476;-61
2022/10/13 12:45:50;;;;;;;2.43;2.23;;;22.10;42.70;;;;;;5009604;28;20448;-62
2022/10/13 12:48:28;;;;;;;2.33;2.13;;;22.10;42.70;;;;;;5020951;28;21004;-61
2022/10/13 12:50:54;;;;;;;1.83;1.73;;;22.10;42.60;;;;;;5012318;28;20927;-62
2022/10/13 12:53:27;;;;;;;2.37;2.17;;;22.00;42.60;;;;;;5014656;28;20465;-65
2022/10/13 12:55:59;;;;;;;2.23;2.13;;;22.10;42.70;;;;;;5016820;28;20227;-63
2022/10/13 12:58:30;;;;;;;2.10;2.00;;;22.10;42.60;;;;;;5023482;28;20468;-61
2022/10/13 13:01:04;;;;;;;2.03;1.93;;;22.10;42.70;;;;;;5007337;28;20487;-62
2022/10/13 13:03:30;;;;;;;2.00;1.90;;;22.10;42.70;;;;;;5017187;28;20461;-62
2022/10/13 13:06:09;;;;;;;2.20;2.10;;;22.10;42.70;;;;;;5016650;28;20797;-61
2022/10/13 13:08:35;;;;;;;1.80;1.70;;;22.10;42.70;;;;;;5018558;28;20229;-61